sensor_id;sensor_type;location;lat;lon;timestamp;pressure;altitude;pressure_sealevel;temperature
76394;BMP180;65216;51.090;-115.352;2023-01-10T00:02:05;85800.60;;;21.50
76394;BMP180;65216;51.090;-115.352;2023-01-10T00:04:35;85780.80;;;21.50
76394;BMP180;65216;51.090;-115.352;2023-01-10T00:07:02;85787.00;;;21.50
76394;BMP180;65216;51.090;-115.352;2023-01-10T00:09:30;85783.80;;;21.50
76394;BMP180;65216;51.090;-115.352;2023-01-10T00:11:57;85774.80;;;21.50
76394;BMP180;65216;51.090;-115.352;2023-01-10T00:14:43;85788.20;;;21.50
76394;BMP180;65216;51.090;-115.352;2023-01-10T00:17:13;85779.00;;;21.50
76394;BMP180;65216;51.090;-115.352;2023-01-10T00:19:41;85792.80;;;21.50
76394;BMP180;65216;51.090;-115.352;2023-01-10T00:22:08;85791.00;;;21.50
76394;BMP180;65216;51.090;-115.352;2023-01-10T00:24:36;85779.20;;;21.46
76394;BMP180;65216;51.090;-115.352;2023-01-10T00:27:04;85783.20;;;21.44
76394;BMP180;65216;51.090;-115.352;2023-01-10T00:29:32;85785.80;;;21.40
76394;BMP180;65216;51.090;-115.352;2023-01-10T00:32:01;85802.80;;;21.40
76394;BMP180;65216;51.090;-115.352;2023-01-10T00:34:31;85783.40;;;21.40
76394;BMP180;65216;51.090;-115.352;2023-01-10T00:37:03;85798.80;;;21.40
76394;BMP180;65216;51.090;-115.352;2023-01-10T00:39:30;85796.00;;;21.40
76394;BMP180;65216;51.090;-115.352;2023-01-10T00:42:01;85776.80;;;21.40
76394;BMP180;65216;51.090;-115.352;2023-01-10T00:44:46;85793.00;;;21.40
76394;BMP180;65216;51.090;-115.352;2023-01-10T00:47:14;85798.40;;;21.40
76394;BMP180;65216;51.090;-115.352;2023-01-10T00:49:42;85783.20;;;21.40
76394;BMP180;65216;51.090;-115.352;2023-01-10T00:52:09;85778.40;;;21.40
76394;BMP180;65216;51.090;-115.352;2023-01-10T00:54:37;85785.60;;;21.40
76394;BMP180;65216;51.090;-115.352;2023-01-10T00:57:04;85760.00;;;21.40
76394;BMP180;65216;51.090;-115.352;2023-01-10T00:59:32;85762.40;;;21.40
76394;BMP180;65216;51.090;-115.352;2023-01-10T01:01:59;85780.80;;;21.40
76394;BMP180;65216;51.090;-115.352;2023-01-10T01:04:30;85767.60;;;21.40
76394;BMP180;65216;51.090;-115.352;2023-01-10T01:07:02;85768.60;;;21.40
76394;BMP180;65216;51.090;-115.352;2023-01-10T01:09:34;85779.00;;;21.40
76394;BMP180;65216;51.090;-115.352;2023-01-10T01:12:21;85753.40;;;21.40
76394;BMP180;65216;51.090;-115.352;2023-01-10T01:14:48;85749.20;;;21.40
76394;BMP180;65216;51.090;-115.352;2023-01-10T01:17:19;85768.20;;;21.40
76394;BMP180;65216;51.090;-115.352;2023-01-10T01:19:46;85753.40;;;21.40
76394;BMP180;65216;51.090;-115.352;2023-01-10T01:22:14;85766.40;;;21.40
76394;BMP180;65216;51.090;-115.352;2023-01-10T01:24:41;85749.60;;;21.40
76394;BMP180;65216;51.090;-115.352;2023-01-10T01:27:09;85735.60;;;21.40
76394;BMP180;65216;51.090;-115.352;2023-01-10T01:29:36;85741.40;;;21.40
76394;BMP180;65216;51.090;-115.352;2023-01-10T01:32:04;85738.00;;;21.40
76394;BMP180;65216;51.090;-115.352;2023-01-10T01:34:34;85746.20;;;21.40
76394;BMP180;65216;51.090;-115.352;2023-01-10T01:37:02;85744.00;;;21.40
76394;BMP180;65216;51.090;-115.352;2023-01-10T01:39:31;85739.20;;;21.40
76394;BMP180;65216;51.090;-115.352;2023-01-10T01:42:05;85734.60;;;21.40
76394;BMP180;65216;51.090;-115.352;2023-01-10T01:44:37;85740.00;;;21.40
76394;BMP180;65216;51.090;-115.352;2023-01-10T01:47:17;85751.20;;;21.40
76394;BMP180;65216;51.090;-115.352;2023-01-10T01:49:55;85738.80;;;21.40
76394;BMP180;65216;51.090;-115.352;2023-01-10T01:52:31;85743.40;;;21.40
76394;BMP180;65216;51.090;-115.352;2023-01-10T01:55:02;85741.60;;;21.40
76394;BMP180;65216;51.090;-115.352;2023-01-10T01:57:35;85748.00;;;21.40
76394;BMP180;65216;51.090;-115.352;2023-01-10T02:00:05;85729.20;;;21.40
76394;BMP180;65216;51.090;-115.352;2023-01-10T02:02:45;85726.20;;;21.40
76394;BMP180;65216;51.090;-115.352;2023-01-10T02:05:18;85742.80;;;21.40
76394;BMP180;65216;51.090;-115.352;2023-01-10T02:07:55;85742.20;;;21.40
76394;BMP180;65216;51.090;-115.352;2023-01-10T02:13:17;85749.00;;;21.40
76394;BMP180;65216;51.090;-115.352;2023-01-10T02:15:45;85739.20;;;21.40
76394;BMP180;65216;51.090;-115.352;2023-01-10T02:18:13;85755.00;;;21.40
76394;BMP180;65216;51.090;-115.352;2023-01-10T02:30:32;85744.00;;;21.40
76394;BMP180;65216;51.090;-115.352;2023-01-10T02:39:29;85755.00;;;21.40
76394;BMP180;65216;51.090;-115.352;2023-01-10T02:42:36;85743.40;;;21.36
76394;BMP180;65216;51.090;-115.352;2023-01-10T02:47:40;85755.60;;;21.30
76394;BMP180;65216;51.090;-115.352;2023-01-10T02:50:44;85751.20;;;21.30
76394;BMP180;65216;51.090;-115.352;2023-01-10T02:53:40;85752.80;;;21.30
76394;BMP180;65216;51.090;-115.352;2023-01-10T02:56:44;85754.20;;;21.30
76394;BMP180;65216;51.090;-115.352;2023-01-10T03:09:55;85740.00;;;21.30
76394;BMP180;65216;51.090;-115.352;2023-01-10T03:12:13;85740.60;;;21.30
76394;BMP180;65216;51.090;-115.352;2023-01-10T03:14:50;85744.00;;;21.30
76394;BMP180;65216;51.090;-115.352;2023-01-10T03:17:20;85759.60;;;21.30
76394;BMP180;65216;51.090;-115.352;2023-01-10T03:19:53;85763.20;;;21.30
76394;BMP180;65216;51.090;-115.352;2023-01-10T03:22:28;85768.20;;;21.30
76394;BMP180;65216;51.090;-115.352;2023-01-10T03:24:59;85765.40;;;21.30
76394;BMP180;65216;51.090;-115.352;2023-01-10T03:30:49;85769.20;;;21.30
76394;BMP180;65216;51.090;-115.352;2023-01-10T03:33:25;85762.20;;;21.30
76394;BMP180;65216;51.090;-115.352;2023-01-10T03:42:12;85771.00;;;21.30
76394;BMP180;65216;51.090;-115.352;2023-01-10T03:45:04;85769.80;;;21.30
76394;BMP180;65216;51.090;-115.352;2023-01-10T03:47:43;85779.20;;;21.30
76394;BMP180;65216;51.090;-115.352;2023-01-10T03:50:14;85768.80;;;21.26
76394;BMP180;65216;51.090;-115.352;2023-01-10T03:52:43;85780.40;;;21.26
76394;BMP180;65216;51.090;-115.352;2023-01-10T03:55:17;85779.00;;;21.26
76394;BMP180;65216;51.090;-115.352;2023-01-10T03:57:50;85769.20;;;21.22
76394;BMP180;65216;51.090;-115.352;2023-01-10T04:00:24;85776.20;;;21.24
76394;BMP180;65216;51.090;-115.352;2023-01-10T04:02:51;85786.20;;;21.20
76394;BMP180;65216;51.090;-115.352;2023-01-10T04:05:21;85785.80;;;21.20
76394;BMP180;65216;51.090;-115.352;2023-01-10T04:07:48;85781.80;;;21.20
76394;BMP180;65216;51.090;-115.352;2023-01-10T04:10:16;85784.80;;;21.20
76394;BMP180;65216;51.090;-115.352;2023-01-10T04:12:43;85796.80;;;21.20
76394;BMP180;65216;51.090;-115.352;2023-01-10T04:15:16;85792.40;;;21.20
76394;BMP180;65216;51.090;-115.352;2023-01-10T04:17:44;85788.40;;;21.20
76394;BMP180;65216;51.090;-115.352;2023-01-10T04:20:13;85784.40;;;21.20
76394;BMP180;65216;51.090;-115.352;2023-01-10T04:22:41;85787.00;;;21.20
76394;BMP180;65216;51.090;-115.352;2023-01-10T04:25:11;85785.00;;;21.20
76394;BMP180;65216;51.090;-115.352;2023-01-10T04:27:41;85793.40;;;21.20
76394;BMP180;65216;51.090;-115.352;2023-01-10T04:30:12;85793.20;;;21.20
76394;BMP180;65216;51.090;-115.352;2023-01-10T04:32:39;85792.20;;;21.20
76394;BMP180;65216;51.090;-115.352;2023-01-10T04:35:08;85790.80;;;21.18
76394;BMP180;65216;51.090;-115.352;2023-01-10T04:37:37;85793.00;;;21.10
76394;BMP180;65216;51.090;-115.352;2023-01-10T04:40:08;85799.00;;;21.12
76394;BMP180;65216;51.090;-115.352;2023-01-10T04:42:36;85793.40;;;21.10
76394;BMP180;65216;51.090;-115.352;2023-01-10T04:45:04;85793.20;;;21.10
76394;BMP180;65216;51.090;-115.352;2023-01-10T04:47:31;85803.80;;;21.10
76394;BMP180;65216;51.090;-115.352;2023-01-10T04:49:59;85804.80;;;21.10
76394;BMP180;65216;51.090;-115.352;2023-01-10T04:52:26;85807.60;;;21.10
76394;BMP180;65216;51.090;-115.352;2023-01-10T04:54:54;85805.80;;;21.10
76394;BMP180;65216;51.090;-115.352;2023-01-10T04:57:24;85803.40;;;21.10
76394;BMP180;65216;51.090;-115.352;2023-01-10T04:59:51;85806.00;;;21.10
76394;BMP180;65216;51.090;-115.352;2023-01-10T05:02:22;85807.00;;;21.10
76394;BMP180;65216;51.090;-115.352;2023-01-10T05:04:52;85810.60;;;21.00
76394;BMP180;65216;51.090;-115.352;2023-01-10T05:07:20;85815.00;;;21.00
76394;BMP180;65216;51.090;-115.352;2023-01-10T05:09:50;85808.40;;;21.00
76394;BMP180;65216;51.090;-115.352;2023-01-10T05:12:17;85809.00;;;21.00
76394;BMP180;65216;51.090;-115.352;2023-01-10T05:14:45;85812.80;;;21.00
76394;BMP180;65216;51.090;-115.352;2023-01-10T05:17:12;85813.60;;;20.98
76394;BMP180;65216;51.090;-115.352;2023-01-10T05:19:40;85818.60;;;20.96
76394;BMP180;65216;51.090;-115.352;2023-01-10T05:22:07;85814.60;;;20.90
76394;BMP180;65216;51.090;-115.352;2023-01-10T05:24:38;85820.80;;;20.92
76394;BMP180;65216;51.090;-115.352;2023-01-10T05:27:10;85819.00;;;20.90
76394;BMP180;65216;51.090;-115.352;2023-01-10T05:29:38;85821.80;;;20.90
76394;BMP180;65216;51.090;-115.352;2023-01-10T05:32:08;85824.60;;;20.90
76394;BMP180;65216;51.090;-115.352;2023-01-10T05:34:35;85821.80;;;20.90
76394;BMP180;65216;51.090;-115.352;2023-01-10T05:37:02;85824.80;;;20.90
76394;BMP180;65216;51.090;-115.352;2023-01-10T05:39:32;85825.60;;;20.90
76394;BMP180;65216;51.090;-115.352;2023-01-10T05:42:03;85827.40;;;20.90
76394;BMP180;65216;51.090;-115.352;2023-01-10T05:44:31;85827.80;;;20.90
76394;BMP180;65216;51.090;-115.352;2023-01-10T05:46:58;85827.00;;;20.90
76394;BMP180;65216;51.090;-115.352;2023-01-10T05:49:26;85828.60;;;20.90
76394;BMP180;65216;51.090;-115.352;2023-01-10T05:51:56;85829.80;;;20.90
76394;BMP180;65216;51.090;-115.352;2023-01-10T05:54:23;85830.00;;;20.90
76394;BMP180;65216;51.090;-115.352;2023-01-10T05:56:50;85835.00;;;20.90
76394;BMP180;65216;51.090;-115.352;2023-01-10T05:59:18;85836.00;;;20.90
76394;BMP180;65216;51.090;-115.352;2023-01-10T06:01:45;85835.40;;;20.90
76394;BMP180;65216;51.090;-115.352;2023-01-10T06:04:14;85831.20;;;20.90
76394;BMP180;65216;51.090;-115.352;2023-01-10T06:06:41;85833.80;;;20.90
76394;BMP180;65216;51.090;-115.352;2023-01-10T06:09:09;85837.40;;;20.90
76394;BMP180;65216;51.090;-115.352;2023-01-10T06:11:45;85842.20;;;20.90
76394;BMP180;65216;51.090;-115.352;2023-01-10T06:14:13;85839.20;;;20.90
76394;BMP180;65216;51.090;-115.352;2023-01-10T06:16:48;85835.40;;;20.90
76394;BMP180;65216;51.090;-115.352;2023-01-10T06:19:18;85832.40;;;20.90
76394;BMP180;65216;51.090;-115.352;2023-01-10T06:21:45;85834.60;;;20.90
76394;BMP180;65216;51.090;-115.352;2023-01-10T06:24:13;85833.40;;;20.90
76394;BMP180;65216;51.090;-115.352;2023-01-10T06:26:40;85838.00;;;20.90
76394;BMP180;65216;51.090;-115.352;2023-01-10T06:29:08;85840.60;;;20.90
76394;BMP180;65216;51.090;-115.352;2023-01-10T06:31:35;85840.60;;;20.88
76394;BMP180;65216;51.090;-115.352;2023-01-10T06:34:06;85840.00;;;20.88
76394;BMP180;65216;51.090;-115.352;2023-01-10T06:36:33;85841.60;;;20.86
76394;BMP180;65216;51.090;-115.352;2023-01-10T06:39:01;85836.40;;;20.86
76394;BMP180;65216;51.090;-115.352;2023-01-10T06:41:31;85842.00;;;20.88
76394;BMP180;65216;51.090;-115.352;2023-01-10T06:44:01;85843.00;;;20.82
76394;BMP180;65216;51.090;-115.352;2023-01-10T06:46:29;85852.00;;;20.84
76394;BMP180;65216;51.090;-115.352;2023-01-10T06:48:56;85853.40;;;20.88
76394;BMP180;65216;51.090;-115.352;2023-01-10T06:51:24;85851.00;;;20.82
76394;BMP180;65216;51.090;-115.352;2023-01-10T06:53:51;85851.40;;;20.80
76394;BMP180;65216;51.090;-115.352;2023-01-10T06:56:19;85850.20;;;20.80
76394;BMP180;65216;51.090;-115.352;2023-01-10T06:58:51;85846.20;;;20.80
76394;BMP180;65216;51.090;-115.352;2023-01-10T07:01:23;85851.60;;;20.80
76394;BMP180;65216;51.090;-115.352;2023-01-10T07:03:50;85853.60;;;20.80
76394;BMP180;65216;51.090;-115.352;2023-01-10T07:06:18;85853.00;;;20.80
76394;BMP180;65216;51.090;-115.352;2023-01-10T07:08:46;85856.00;;;20.80
76394;BMP180;65216;51.090;-115.352;2023-01-10T07:11:15;85853.00;;;20.80
76394;BMP180;65216;51.090;-115.352;2023-01-10T07:13:43;85855.60;;;20.80
76394;BMP180;65216;51.090;-115.352;2023-01-10T07:16:15;85852.00;;;20.80
76394;BMP180;65216;51.090;-115.352;2023-01-10T07:18:42;85851.80;;;20.80
76394;BMP180;65216;51.090;-115.352;2023-01-10T07:21:11;85846.80;;;20.80
76394;BMP180;65216;51.090;-115.352;2023-01-10T07:23:38;85848.00;;;20.80
76394;BMP180;65216;51.090;-115.352;2023-01-10T07:26:10;85847.20;;;20.80
76394;BMP180;65216;51.090;-115.352;2023-01-10T07:28:52;85852.40;;;20.80
76394;BMP180;65216;51.090;-115.352;2023-01-10T07:31:20;85850.60;;;20.80
76394;BMP180;65216;51.090;-115.352;2023-01-10T07:33:53;85850.60;;;20.80
76394;BMP180;65216;51.090;-115.352;2023-01-10T07:36:21;85842.80;;;20.80
76394;BMP180;65216;51.090;-115.352;2023-01-10T07:38:48;85843.80;;;20.80
76394;BMP180;65216;51.090;-115.352;2023-01-10T07:41:16;85841.40;;;20.80
76394;BMP180;65216;51.090;-115.352;2023-01-10T07:43:43;85839.80;;;20.80
76394;BMP180;65216;51.090;-115.352;2023-01-10T07:46:14;85839.00;;;20.80
76394;BMP180;65216;51.090;-115.352;2023-01-10T07:48:44;85841.40;;;20.80
76394;BMP180;65216;51.090;-115.352;2023-01-10T07:51:12;85843.60;;;20.80
76394;BMP180;65216;51.090;-115.352;2023-01-10T07:53:43;85842.60;;;20.80
76394;BMP180;65216;51.090;-115.352;2023-01-10T07:56:10;85846.00;;;20.80
76394;BMP180;65216;51.090;-115.352;2023-01-10T07:58:38;85848.80;;;20.80
76394;BMP180;65216;51.090;-115.352;2023-01-10T08:01:08;85848.20;;;20.80
76394;BMP180;65216;51.090;-115.352;2023-01-10T08:03:36;85854.80;;;20.80
76394;BMP180;65216;51.090;-115.352;2023-01-10T08:06:09;85855.40;;;20.80
76394;BMP180;65216;51.090;-115.352;2023-01-10T08:08:47;85857.80;;;20.80
76394;BMP180;65216;51.090;-115.352;2023-01-10T08:11:28;85865.60;;;20.80
76394;BMP180;65216;51.090;-115.352;2023-01-10T08:14:00;85861.20;;;20.80
76394;BMP180;65216;51.090;-115.352;2023-01-10T08:16:31;85859.40;;;20.80
76394;BMP180;65216;51.090;-115.352;2023-01-10T08:19:08;85859.60;;;20.80
76394;BMP180;65216;51.090;-115.352;2023-01-10T08:21:42;85869.80;;;20.80
76394;BMP180;65216;51.090;-115.352;2023-01-10T08:24:12;85867.40;;;20.80
76394;BMP180;65216;51.090;-115.352;2023-01-10T08:26:43;85874.00;;;20.80
76394;BMP180;65216;51.090;-115.352;2023-01-10T08:29:29;85869.00;;;20.76
76394;BMP180;65216;51.090;-115.352;2023-01-10T08:32:06;85873.40;;;20.78
76394;BMP180;65216;51.090;-115.352;2023-01-10T08:34:41;85873.80;;;20.74
76394;BMP180;65216;51.090;-115.352;2023-01-10T08:37:19;85873.40;;;20.72
76394;BMP180;65216;51.090;-115.352;2023-01-10T08:39:53;85869.60;;;20.72
76394;BMP180;65216;51.090;-115.352;2023-01-10T08:42:23;85869.20;;;20.70
76394;BMP180;65216;51.090;-115.352;2023-01-10T08:45:07;85870.00;;;20.70
76394;BMP180;65216;51.090;-115.352;2023-01-10T08:47:35;85866.80;;;20.70
76394;BMP180;65216;51.090;-115.352;2023-01-10T08:50:12;85867.00;;;20.70
76394;BMP180;65216;51.090;-115.352;2023-01-10T08:52:46;85872.20;;;20.70
76394;BMP180;65216;51.090;-115.352;2023-01-10T08:55:24;85870.60;;;20.70
76394;BMP180;65216;51.090;-115.352;2023-01-10T08:58:05;85871.80;;;20.70
76394;BMP180;65216;51.090;-115.352;2023-01-10T09:00:41;85882.40;;;20.70
76394;BMP180;65216;51.090;-115.352;2023-01-10T09:03:11;85884.60;;;20.70
76394;BMP180;65216;51.090;-115.352;2023-01-10T09:05:44;85891.20;;;20.70
76394;BMP180;65216;51.090;-115.352;2023-01-10T09:08:17;85897.20;;;20.70
76394;BMP180;65216;51.090;-115.352;2023-01-10T09:10:56;85897.60;;;20.70
76394;BMP180;65216;51.090;-115.352;2023-01-10T09:13:32;85894.40;;;20.70
76394;BMP180;65216;51.090;-115.352;2023-01-10T09:15:59;85896.00;;;20.66
76394;BMP180;65216;51.090;-115.352;2023-01-10T09:18:35;85898.60;;;20.66
76394;BMP180;65216;51.090;-115.352;2023-01-10T09:21:11;85905.20;;;20.60
76394;BMP180;65216;51.090;-115.352;2023-01-10T09:23:55;85903.40;;;20.60
76394;BMP180;65216;51.090;-115.352;2023-01-10T09:26:25;85901.80;;;20.62
76394;BMP180;65216;51.090;-115.352;2023-01-10T09:28:56;85905.80;;;20.60
76394;BMP180;65216;51.090;-115.352;2023-01-10T09:31:29;85910.20;;;20.60
76394;BMP180;65216;51.090;-115.352;2023-01-10T09:34:05;85913.00;;;20.64
76394;BMP180;65216;51.090;-115.352;2023-01-10T09:36:42;85915.20;;;20.60
76394;BMP180;65216;51.090;-115.352;2023-01-10T09:39:16;85926.80;;;20.62
76394;BMP180;65216;51.090;-115.352;2023-01-10T09:45:12;85931.80;;;20.60
76394;BMP180;65216;51.090;-115.352;2023-01-10T09:48:00;85933.80;;;20.60
76394;BMP180;65216;51.090;-115.352;2023-01-10T09:53:18;85935.60;;;20.60
76394;BMP180;65216;51.090;-115.352;2023-01-10T09:55:58;85936.20;;;20.60
76394;BMP180;65216;51.090;-115.352;2023-01-10T09:58:34;85940.80;;;20.60
76394;BMP180;65216;51.090;-115.352;2023-01-10T10:01:17;85945.40;;;20.60
76394;BMP180;65216;51.090;-115.352;2023-01-10T10:04:22;85948.20;;;20.60
76394;BMP180;65216;51.090;-115.352;2023-01-10T10:06:59;85950.80;;;20.60
76394;BMP180;65216;51.090;-115.352;2023-01-10T10:09:37;85953.00;;;20.60
76394;BMP180;65216;51.090;-115.352;2023-01-10T10:12:52;85948.40;;;20.60
76394;BMP180;65216;51.090;-115.352;2023-01-10T10:16:06;85965.60;;;20.60
76394;BMP180;65216;51.090;-115.352;2023-01-10T10:19:03;85973.80;;;20.60
76394;BMP180;65216;51.090;-115.352;2023-01-10T10:21:46;85963.80;;;20.60
76394;BMP180;65216;51.090;-115.352;2023-01-10T10:27:28;85978.80;;;20.60
76394;BMP180;65216;51.090;-115.352;2023-01-10T10:30:39;85982.20;;;20.58
76394;BMP180;65216;51.090;-115.352;2023-01-10T10:36:25;86000.60;;;20.60
76394;BMP180;65216;51.090;-115.352;2023-01-10T10:39:03;86002.20;;;20.60
76394;BMP180;65216;51.090;-115.352;2023-01-10T10:41:45;86001.00;;;20.54
76394;BMP180;65216;51.090;-115.352;2023-01-10T10:47:35;86000.80;;;20.50
76394;BMP180;65216;51.090;-115.352;2023-01-10T10:50:34;86006.20;;;20.50
76394;BMP180;65216;51.090;-115.352;2023-01-10T10:53:15;86010.60;;;20.50
76394;BMP180;65216;51.090;-115.352;2023-01-10T10:55:47;86000.20;;;20.50
76394;BMP180;65216;51.090;-115.352;2023-01-10T10:58:18;86004.80;;;20.50
76394;BMP180;65216;51.090;-115.352;2023-01-10T11:00:47;86004.00;;;20.50
76394;BMP180;65216;51.090;-115.352;2023-01-10T11:06:13;86006.00;;;20.50
76394;BMP180;65216;51.090;-115.352;2023-01-10T11:08:49;86003.40;;;20.58
76394;BMP180;65216;51.090;-115.352;2023-01-10T11:11:42;86010.60;;;20.60
76394;BMP180;65216;51.090;-115.352;2023-01-10T11:17:36;86010.40;;;20.50
76394;BMP180;65216;51.090;-115.352;2023-01-10T11:20:18;86010.00;;;20.50
76394;BMP180;65216;51.090;-115.352;2023-01-10T11:22:54;86008.20;;;20.52
76394;BMP180;65216;51.090;-115.352;2023-01-10T11:25:34;86009.60;;;20.50
76394;BMP180;65216;51.090;-115.352;2023-01-10T11:28:13;86006.00;;;20.50
76394;BMP180;65216;51.090;-115.352;2023-01-10T11:30:57;86006.80;;;20.50
76394;BMP180;65216;51.090;-115.352;2023-01-10T11:33:35;86014.00;;;20.50
76394;BMP180;65216;51.090;-115.352;2023-01-10T11:36:10;86007.40;;;20.50
76394;BMP180;65216;51.090;-115.352;2023-01-10T11:38:44;85991.20;;;20.50
76394;BMP180;65216;51.090;-115.352;2023-01-10T11:41:28;85998.60;;;20.50
76394;BMP180;65216;51.090;-115.352;2023-01-10T11:44:28;85998.60;;;20.50
76394;BMP180;65216;51.090;-115.352;2023-01-10T11:47:04;85999.00;;;20.44
76394;BMP180;65216;51.090;-115.352;2023-01-10T11:49:49;86014.00;;;20.40
76394;BMP180;65216;51.090;-115.352;2023-01-10T11:52:31;86013.20;;;20.40
76394;BMP180;65216;51.090;-115.352;2023-01-10T11:55:00;86004.60;;;20.40
76394;BMP180;65216;51.090;-115.352;2023-01-10T11:57:38;86005.00;;;20.40
76394;BMP180;65216;51.090;-115.352;2023-01-10T12:00:17;86014.60;;;20.32
76394;BMP180;65216;51.090;-115.352;2023-01-10T12:02:49;86005.60;;;20.30
76394;BMP180;65216;51.090;-115.352;2023-01-10T12:05:21;86004.60;;;20.30
76394;BMP180;65216;51.090;-115.352;2023-01-10T12:08:02;86009.40;;;20.30
76394;BMP180;65216;51.090;-115.352;2023-01-10T12:10:57;86003.60;;;20.30
76394;BMP180;65216;51.090;-115.352;2023-01-10T12:13:48;86003.40;;;20.30
76394;BMP180;65216;51.090;-115.352;2023-01-10T12:16:35;86007.40;;;20.30
76394;BMP180;65216;51.090;-115.352;2023-01-10T12:19:11;85999.40;;;20.30
76394;BMP180;65216;51.090;-115.352;2023-01-10T12:21:47;86006.40;;;20.30
76394;BMP180;65216;51.090;-115.352;2023-01-10T12:24:37;86007.80;;;20.20
76394;BMP180;65216;51.090;-115.352;2023-01-10T12:27:17;85994.60;;;20.20
76394;BMP180;65216;51.090;-115.352;2023-01-10T12:32:48;85993.20;;;20.20
76394;BMP180;65216;51.090;-115.352;2023-01-10T12:39:24;85996.60;;;20.20
76394;BMP180;65216;51.090;-115.352;2023-01-10T12:46:09;85992.20;;;20.20
76394;BMP180;65216;51.090;-115.352;2023-01-10T12:51:58;85985.20;;;20.20
76394;BMP180;65216;51.090;-115.352;2023-01-10T12:54:31;86005.40;;;20.20
76394;BMP180;65216;51.090;-115.352;2023-01-10T12:57:29;85998.20;;;20.20
76394;BMP180;65216;51.090;-115.352;2023-01-10T13:00:04;85996.00;;;20.20
76394;BMP180;65216;51.090;-115.352;2023-01-10T13:02:43;86001.00;;;20.20
76394;BMP180;65216;51.090;-115.352;2023-01-10T13:05:35;85999.00;;;20.20
76394;BMP180;65216;51.090;-115.352;2023-01-10T13:08:16;86003.00;;;20.20
76394;BMP180;65216;51.090;-115.352;2023-01-10T13:10:58;86000.40;;;20.20
76394;BMP180;65216;51.090;-115.352;2023-01-10T13:13:51;85996.40;;;20.20
76394;BMP180;65216;51.090;-115.352;2023-01-10T13:21:47;85993.60;;;20.20
76394;BMP180;65216;51.090;-115.352;2023-01-10T13:24:24;85994.00;;;20.20
76394;BMP180;65216;51.090;-115.352;2023-01-10T13:27:19;85989.80;;;20.20
76394;BMP180;65216;51.090;-115.352;2023-01-10T13:29:52;85991.80;;;20.20
76394;BMP180;65216;51.090;-115.352;2023-01-10T13:32:35;85991.40;;;20.20
76394;BMP180;65216;51.090;-115.352;2023-01-10T13:35:18;85984.80;;;20.20
76394;BMP180;65216;51.090;-115.352;2023-01-10T13:37:55;85988.20;;;20.20
76394;BMP180;65216;51.090;-115.352;2023-01-10T13:40:32;85981.80;;;20.20
76394;BMP180;65216;51.090;-115.352;2023-01-10T13:51:32;85980.20;;;20.20
76394;BMP180;65216;51.090;-115.352;2023-01-10T13:54:25;85969.40;;;20.20
76394;BMP180;65216;51.090;-115.352;2023-01-10T13:57:48;85980.80;;;20.20
76394;BMP180;65216;51.090;-115.352;2023-01-10T14:01:03;85978.40;;;20.20
76394;BMP180;65216;51.090;-115.352;2023-01-10T14:04:01;85966.60;;;20.20
76394;BMP180;65216;51.090;-115.352;2023-01-10T14:06:33;85968.60;;;20.20
76394;BMP180;65216;51.090;-115.352;2023-01-10T14:11:57;85983.00;;;20.20
76394;BMP180;65216;51.090;-115.352;2023-01-10T14:15:02;85983.00;;;20.20
76394;BMP180;65216;51.090;-115.352;2023-01-10T14:18:22;85971.00;;;20.20
76394;BMP180;65216;51.090;-115.352;2023-01-10T14:21:25;85959.00;;;20.20
76394;BMP180;65216;51.090;-115.352;2023-01-10T14:23:58;85963.80;;;20.20
76394;BMP180;65216;51.090;-115.352;2023-01-10T14:26:39;85976.80;;;20.20
76394;BMP180;65216;51.090;-115.352;2023-01-10T14:29:35;85973.80;;;20.20
76394;BMP180;65216;51.090;-115.352;2023-01-10T14:35:16;85964.60;;;20.28
76394;BMP180;65216;51.090;-115.352;2023-01-10T14:38:00;85963.40;;;20.30
76394;BMP180;65216;51.090;-115.352;2023-01-10T14:40:44;85968.20;;;20.30
76394;BMP180;65216;51.090;-115.352;2023-01-10T14:43:23;85961.60;;;20.30
76394;BMP180;65216;51.090;-115.352;2023-01-10T14:46:15;85977.20;;;20.30
76394;BMP180;65216;51.090;-115.352;2023-01-10T14:48:51;85970.20;;;20.30
76394;BMP180;65216;51.090;-115.352;2023-01-10T14:51:31;85967.40;;;20.30
76394;BMP180;65216;51.090;-115.352;2023-01-10T14:54:19;85974.20;;;20.30
76394;BMP180;65216;51.090;-115.352;2023-01-10T15:00:15;85977.20;;;20.30
76394;BMP180;65216;51.090;-115.352;2023-01-10T15:02:53;85990.00;;;20.30
76394;BMP180;65216;51.090;-115.352;2023-01-10T15:05:38;85989.00;;;20.30
76394;BMP180;65216;51.090;-115.352;2023-01-10T15:08:34;85995.20;;;20.30
76394;BMP180;65216;51.090;-115.352;2023-01-10T15:11:10;85994.60;;;20.30
76394;BMP180;65216;51.090;-115.352;2023-01-10T15:14:14;85996.80;;;20.30
76394;BMP180;65216;51.090;-115.352;2023-01-10T15:16:51;86000.40;;;20.30
76394;BMP180;65216;51.090;-115.352;2023-01-10T15:19:30;86004.60;;;20.30
76394;BMP180;65216;51.090;-115.352;2023-01-10T15:22:24;86009.80;;;20.30
76394;BMP180;65216;51.090;-115.352;2023-01-10T15:27:51;86005.00;;;20.30
76394;BMP180;65216;51.090;-115.352;2023-01-10T15:30:38;86007.20;;;20.30
76394;BMP180;65216;51.090;-115.352;2023-01-10T15:33:22;85998.80;;;20.30
76394;BMP180;65216;51.090;-115.352;2023-01-10T15:36:01;85995.00;;;20.30
76394;BMP180;65216;51.090;-115.352;2023-01-10T15:38:51;85996.00;;;20.30
76394;BMP180;65216;51.090;-115.352;2023-01-10T15:45:01;85995.40;;;20.30
76394;BMP180;65216;51.090;-115.352;2023-01-10T15:47:53;85996.00;;;20.30
76394;BMP180;65216;51.090;-115.352;2023-01-10T15:50:38;86000.40;;;20.30
76394;BMP180;65216;51.090;-115.352;2023-01-10T15:54:06;86011.40;;;20.30
76394;BMP180;65216;51.090;-115.352;2023-01-10T15:59:45;86008.40;;;20.30
76394;BMP180;65216;51.090;-115.352;2023-01-10T16:02:29;86001.60;;;20.30
76394;BMP180;65216;51.090;-115.352;2023-01-10T16:05:14;86020.00;;;20.30
76394;BMP180;65216;51.090;-115.352;2023-01-10T16:07:46;86016.00;;;20.30
76394;BMP180;65216;51.090;-115.352;2023-01-10T16:10:32;86021.20;;;20.30